Skip Navigation LinksHome page > Weather > Current weather Skip Navigation Links

Current Weather

Eureka, Nunavut

For information only: do not use for flight planning or navigation.
Latest weather
Observation time Saturday, July 30, 2016 10:00 PM CDT
Local time Sunday, July 31, 2016 12:21 AM CDT
Flight conditions Visual Meteorological Conditions
Winds
Wind direction South (170°)
Wind speed 14 mph
Visibility 15 mi.
Sky condition
Ceiling 21,000 ft. broken clouds
Cloud layer scattered clouds 3,000 ft.
Cloud layer scattered clouds 10,000 ft.
Cloud layer broken clouds 21,000 ft.
Temperature 54°F
Dewpoint 30°F
Altimeter 29.97 in.Hg
Derived measurements
Relative humidity 41%
Density altitude -291 ft.
Sea-level pressure 29.97 in.Hg
Remarks
Last observation of the day.
METAR CWEU 310300Z 17012KT 15SM SCT030 SCT100 BKN210 12/M01 A2997 RMK SC3AC1CI4 AC TR LAST OBS/NEXT 31 0600UTC SLP150

Settings

Location code

InnerDrive.Weather 4.0.5722.1 Release CLR 4.0.30319.34209
Copyright ©2015 Inner Drive Technology. All rights reserved. Portions Copyright ©1986-2015 David Braverman.

Find weather

Site navigation


Skip Navigation Links

Place info

Page info

PayPal - The safer, easier way to pay online!

Return home.

Copyright ©2016 Inner Drive Technology. Purveyors of fine, hand-crafted computer software. Page printed 2016-07-31T05:21:38 UTC.